Time;durP1;ratioP1;P1;durP2;ratioP2;P2;SDS_P1;SDS_P2;PMS_P1;PMS_P2;Temp;Humidity;BMP_temperature;BMP_pressure;BME280_temperature;BME280_humidity;BME280_pressure;Samples;Min_cycle;Max_cycle;Signal;HPM_P1;HPM_P2
2022/02/10 00:07:15;;;;;;;;;;;9.90;99.90;;;;;;4908004;29;19915;-88
2022/02/10 00:18:03;;;;;;;;;;;9.90;99.90;;;;;;4926986;29;20303;-88
2022/02/10 00:20:45;;;;;;;;;;;11.70;99.90;;;;;;4908894;29;19934;-88
2022/02/10 00:23:41;;;;;;;;;;;9.90;99.90;;;;;;4909927;29;19931;-87
2022/02/10 00:34:42;;;;;;;;;;;9.90;99.90;;;;;;4903473;29;19947;-87
2022/02/10 00:37:13;;;;;;;;;;;9.90;99.90;;;;;;4914711;29;19947;-87
2022/02/10 00:42:30;;;;;;;;;;;9.80;99.90;;;;;;4900383;29;19970;-88
2022/02/10 00:44:58;;;;;;;;;;;9.80;99.90;;;;;;4916227;29;19939;-89
2022/02/10 00:50:45;;;;;;;;;;;9.60;99.90;;;;;;4878151;29;19939;-88
2022/02/10 00:55:44;;;;;;;;;;;9.40;99.90;;;;;;4890873;29;19931;-87
2022/02/10 00:58:29;;;;;;;;;;;9.40;99.90;;;;;;4913593;29;19934;-86
2022/02/10 01:31:10;;;;;;;;;;;9.10;99.90;;;;;;4908961;29;19928;-87
2022/02/10 01:33:40;;;;;;;;;;;9.10;99.90;;;;;;4891690;29;19928;-87
2022/02/10 01:36:07;;;;;;;;;;;9.10;99.90;;;;;;4922061;29;19927;-86
2022/02/10 01:38:37;;;;;;;;;;;9.10;99.90;;;;;;4903008;29;19927;-87
2022/02/10 02:03:23;;;;;;;;;;;8.80;99.90;;;;;;4918283;29;19927;-87
2022/02/10 02:06:14;;;;;;;;;;;8.80;99.90;;;;;;4902357;29;19938;-89
2022/02/10 02:08:42;;;;;;;;;;;8.80;99.90;;;;;;4902083;29;19938;-88
2022/02/10 02:11:10;;;;;;;;;;;8.80;99.90;;;;;;4901587;29;19927;-88
2022/02/10 02:13:38;;;;;;;;;;;9.20;99.90;;;;;;4918636;29;19931;-89
2022/02/10 02:16:06;;;;;;;;;;;7.80;99.90;;;;;;4920004;29;19927;-87
2022/02/10 02:18:35;;;;;;;;;;;8.70;99.90;;;;;;4906066;29;19931;-86
2022/02/10 02:21:05;;;;;;;;;;;8.70;99.90;;;;;;4919428;29;19927;-87
2022/02/10 02:23:33;;;;;;;;;;;8.60;99.90;;;;;;4904703;29;19938;-88
2022/02/10 02:26:14;;;;;;;;;;;8.60;99.90;;;;;;4903348;29;19934;-88
2022/02/10 02:28:46;;;;;;;;;;;8.50;99.90;;;;;;4884673;29;19934;-88
2022/02/10 02:31:23;;;;;;;;;;;8.40;99.90;;;;;;4882941;29;19939;-87
2022/02/10 02:37:14;;;;;;;;;;;8.40;99.90;;;;;;4863601;29;19938;-87
2022/02/10 02:39:55;;;;;;;;;;;8.30;99.90;;;;;;4917794;29;19927;-88
2022/02/10 03:05:27;;;;;;;;;;;8.20;99.90;;;;;;4908513;29;20391;-85
2022/02/10 03:10:06;;;;;;;;;;;8.20;99.90;;;;;;4898012;29;20298;-86
2022/02/10 03:12:36;;;;;;;;;;;8.20;99.90;;;;;;4898691;29;20398;-86
2022/02/10 03:15:11;;;;;;;;;;;8.20;99.90;;;;;;4882324;29;19935;-87
2022/02/10 03:20:40;;;;;;;;;;;8.20;99.90;;;;;;4892189;29;19935;-87
2022/02/10 05:19:45;;;;;;;;;;;6.80;99.90;;;;;;4923544;29;19927;-87
2022/02/10 05:22:37;;;;;;;;;;;6.80;99.90;;;;;;4906973;29;19931;-87
2022/02/10 05:35:47;;;;;;;;;;;6.80;99.90;;;;;;4916142;29;20311;-89
2022/02/10 05:38:24;;;;;;;;;;;6.80;99.90;;;;;;4889857;29;19938;-86
2022/02/10 06:52:35;;;;;;;;;;;7.00;99.90;;;;;;4901317;29;19939;-87
2022/02/10 08:04:30;;;;;;;;;;;7.10;99.90;;;;;;4919304;29;19938;-93
2022/02/10 09:01:52;;;;;;;;;;;7.50;99.90;;;;;;4919862;29;19927;-86
2022/02/10 09:04:36;;;;;;;;;;;7.50;99.90;;;;;;4896142;29;19928;-86
2022/02/10 09:55:17;;;;;;;;;;;8.10;99.90;;;;;;4911130;29;19934;-85
2022/02/10 10:00:28;;;;;;;;;;;8.20;99.90;;;;;;4874769;29;19932;-86
2022/02/10 10:03:12;;;;;;;;;;;8.50;99.90;;;;;;4889064;29;19932;-87
2022/02/10 10:06:27;;;;;;;;;;;8.20;99.90;;;;;;4875852;29;20400;-89
2022/02/10 10:52:23;;;;;;;;;;;8.30;99.90;;;;;;4934132;29;19931;-88
2022/02/10 10:58:43;;;;;;;;;;;8.30;99.90;;;;;;4925229;29;19927;-86
2022/02/10 11:38:05;;;;;;;;;;;9.00;99.90;;;;;;4897862;29;20023;-88
2022/02/10 11:41:21;;;;;;;;;;;8.80;99.90;;;;;;4891106;29;19941;-86
2022/02/10 12:32:43;;;;;;;;;;;9.10;99.90;;;;;;4938265;29;19922;-89
2022/02/10 13:25:02;;;;;;;;;;;9.00;97.10;;;;;;4955213;29;19911;-87
2022/02/10 13:49:45;;;;;;;;;;;9.10;98.00;;;;;;4939795;23;19925;-87
2022/02/10 14:09:11;;;;;;;;;;;9.20;98.70;;;;;;4918382;29;19938;-88
2022/02/10 14:17:35;;;;;;;;;;;9.00;98.60;;;;;;4937597;29;19931;-90
2022/02/10 14:20:37;;;;;;;;;;;9.00;98.40;;;;;;4951565;23;19946;-88
2022/02/10 14:29:03;;;;;;;;;;;8.90;98.30;;;;;;4871683;29;19958;-84
2022/02/10 14:31:46;;;;;;;;;;;8.90;98.40;;;;;;4884057;29;19954;-88
2022/02/10 14:34:34;;;;;;;;;;;9.00;98.70;;;;;;4871171;29;19928;-88
2022/02/10 14:40:16;;;;;;;;;;;9.10;98.90;;;;;;4918512;29;19938;-88
2022/02/10 16:11:08;;;;;;;;;;;8.60;97.70;;;;;;4896643;29;19932;-88
2022/02/10 16:17:07;;;;;;;;;;;8.50;98.00;;;;;;4543413;27;16868695;-89
2022/02/10 16:19:44;;;;;;;;;;;8.50;98.30;;;;;;5135730;28;19930;-87
2022/02/10 16:22:26;;;;;;;;;;;8.40;98.20;;;;;;5105658;28;19924;-89
2022/02/10 16:25:00;;;;;;;;;;;8.30;98.30;;;;;;5107808;28;19914;-87
2022/02/10 16:27:35;;;;;;;;;;;8.20;98.50;;;;;;5105857;28;19927;-88
2022/02/10 16:30:13;;;;;;;;;;;8.30;98.30;;;;;;5074599;28;19955;-88
2022/02/10 16:32:47;;;;;;;;;;;8.10;98.50;;;;;;5088487;28;19916;-88
2022/02/10 16:35:30;;;;;;;;;;;8.10;98.60;;;;;;5115611;28;19934;-88
2022/02/10 16:38:02;;;;;;;;;;;8.10;98.40;;;;;;5094027;28;19918;-89
2022/02/10 16:40:42;;;;;;;;;;;7.60;99.00;;;;;;5094001;28;19930;-88
2022/02/10 16:43:32;;;;;;;;;;;8.40;98.60;;;;;;5101541;28;19935;-90
2022/02/10 16:46:11;;;;;;;;;;;8.00;98.60;;;;;;5100312;28;19924;-89
2022/02/10 16:48:56;;;;;;;;;;;8.00;98.60;;;;;;5108632;28;19935;-88
2022/02/10 16:51:26;;;;;;;;;;;7.90;98.60;;;;;;5067894;28;19916;-88
2022/02/10 16:54:14;;;;;;;;;;;7.80;98.70;;;;;;5068606;28;19925;-87
2022/02/10 16:57:13;;;;;;;;;;;7.90;98.80;;;;;;5106694;28;19928;-87
2022/02/10 17:00:19;;;;;;;;;;;7.80;98.80;;;;;;5095288;28;19935;-87
2022/02/10 17:27:24;;;;;;;;;;;7.30;99.10;;;;;;5049807;28;19936;-87
2022/02/10 17:30:55;;;;;;;;;;;7.20;99.30;;;;;;5059303;28;20622;-88
2022/02/10 17:36:26;;;;;;;;;;;7.10;99.40;;;;;;5072948;28;20573;-89
2022/02/10 17:42:02;;;;;;;;;;;6.90;99.50;;;;;;5044085;28;19939;-87
2022/02/10 17:44:39;;;;;;;;;;;6.90;99.70;;;;;;5057867;28;19940;-87
2022/02/10 17:52:56;;;;;;;;;;;6.90;99.80;;;;;;5070848;28;19939;-87
2022/02/10 17:55:24;;;;;;;;;;;6.90;99.80;;;;;;5058283;28;19940;-89
2022/02/10 17:57:52;;;;;;;;;;;5.70;99.80;;;;;;5070100;28;19932;-89
2022/02/10 18:00:23;;;;;;;;;;;6.80;99.90;;;;;;5070722;28;19936;-89
2022/02/10 18:02:55;;;;;;;;;;;6.90;99.90;;;;;;5065256;28;19929;-88
2022/02/10 18:05:54;;;;;;;;;;;6.80;99.90;;;;;;5067226;28;20025;-88
2022/02/10 18:08:14;;;;;;;;;;;6.80;99.90;;;;;;5061441;28;19929;-90
2022/02/10 18:13:49;;;;;;;;;;;6.70;99.90;;;;;;5068079;28;19936;-88
2022/02/10 18:19:00;;;;;;;;;;;6.70;99.90;;;;;;5064939;28;19925;-91
2022/02/10 18:24:59;;;;;;;;;;;6.70;99.90;;;;;;5068226;28;19935;-88
2022/02/10 18:27:15;;;;;;;;;;;6.00;99.90;;;;;;5062188;28;19924;-88
2022/02/10 19:06:26;;;;;;;;;;;6.60;99.90;;;;;;5067608;28;20305;-88
2022/02/10 19:09:08;;;;;;;;;;;6.50;99.90;;;;;;5073026;28;19924;-86
2022/02/10 19:11:38;;;;;;;;;;;6.50;99.90;;;;;;5026263;28;19939;-87
2022/02/10 19:14:07;;;;;;;;;;;6.40;99.90;;;;;;5056411;28;19928;-87
2022/02/10 19:16:40;;;;;;;;;;;6.40;99.90;;;;;;5046949;28;19931;-88
2022/02/10 19:19:15;;;;;;;;;;;6.40;99.90;;;;;;5066764;28;19925;-86
2022/02/10 19:21:49;;;;;;;;;;;6.40;99.90;;;;;;5057219;28;19929;-86
2022/02/10 19:24:18;;;;;;;;;;;6.30;99.90;;;;;;5060413;28;20398;-86
2022/02/10 19:26:50;;;;;;;;;;;5.20;99.80;;;;;;5045930;28;19925;-88
2022/02/10 19:29:24;;;;;;;;;;;6.30;99.90;;;;;;5061564;28;19925;-87
2022/02/10 19:31:57;;;;;;;;;;;6.30;99.90;;;;;;5044864;28;19935;-88
2022/02/10 19:34:57;;;;;;;;;;;6.20;99.90;;;;;;5069108;28;19928;-86
2022/02/10 19:37:38;;;;;;;;;;;6.20;99.90;;;;;;5083118;28;19931;-86
2022/02/10 19:40:10;;;;;;;;;;;6.10;99.90;;;;;;5049732;28;20538;-85
2022/02/10 19:42:41;;;;;;;;;;;6.10;99.90;;;;;;5083835;28;20395;-86
2022/02/10 19:45:26;;;;;;;;;;;6.60;99.90;;;;;;5067705;28;19944;-85
2022/02/10 19:47:55;;;;;;;;;;;6.20;99.90;;;;;;5083328;28;19928;-87
2022/02/10 19:50:31;;;;;;;;;;;6.40;99.90;;;;;;5058409;28;19925;-86
2022/02/10 19:53:04;;;;;;;;;;;6.00;99.90;;;;;;5066959;28;19924;-85
2022/02/10 19:55:47;;;;;;;;;;;6.90;99.90;;;;;;5066983;28;19939;-84
2022/02/10 19:58:23;;;;;;;;;;;6.00;99.90;;;;;;5069731;28;19924;-86
2022/02/10 20:00:59;;;;;;;;;;;5.90;99.90;;;;;;5070224;28;19928;-88
2022/02/10 20:03:39;;;;;;;;;;;6.00;99.90;;;;;;5056158;28;19925;-87
2022/02/10 20:06:13;;;;;;;;;;;5.80;99.90;;;;;;5087097;28;19925;-86
2022/02/10 20:08:55;;;;;;;;;;;6.00;99.90;;;;;;5065885;28;20295;-87
2022/02/10 20:11:51;;;;;;;;;;;6.00;99.90;;;;;;5062985;28;19924;-86
2022/02/10 20:14:37;;;;;;;;;;;5.80;99.90;;;;;;5068109;28;19931;-85
2022/02/10 20:17:25;;;;;;;;;;;6.00;99.90;;;;;;5037539;28;19932;-85
2022/02/10 20:20:36;;;;;;;;;;;5.80;99.90;;;;;;5072485;28;19935;-85
2022/02/10 20:23:17;;;;;;;;;;;5.60;99.90;;;;;;5080839;28;19925;-87
2022/02/10 20:26:13;;;;;;;;;;;5.80;99.90;;;;;;5073217;28;19929;-85
2022/02/10 20:28:48;;;;;;;;;;;5.70;99.90;;;;;;5045607;28;19929;-86
2022/02/10 20:31:21;;;;;;;;;;;5.60;99.90;;;;;;5070641;28;19935;-85
2022/02/10 20:34:06;;;;;;;;;;;5.60;99.90;;;;;;5052142;28;19935;-85
2022/02/10 20:36:41;;;;;;;;;;;5.50;99.90;;;;;;5066856;28;19935;-85
2022/02/10 20:39:23;;;;;;;;;;;5.50;99.90;;;;;;5085887;28;19935;-85
2022/02/10 20:42:17;;;;;;;;;;;5.50;99.90;;;;;;5087225;28;19928;-87
2022/02/10 20:45:01;;;;;;;;;;;6.40;99.90;;;;;;5056136;28;19924;-86
2022/02/10 20:47:35;;;;;;;;;;;5.40;99.90;;;;;;5066932;28;19925;-85
2022/02/10 20:50:17;;;;;;;;;;;5.50;99.90;;;;;;5048033;28;19925;-86
2022/02/10 20:53:02;;;;;;;;;;;5.90;99.90;;;;;;5048508;28;19924;-86
2022/02/10 20:55:33;;;;;;;;;;;5.40;99.90;;;;;;5067112;28;19999;-85
2022/02/10 20:58:03;;;;;;;;;;;5.70;99.90;;;;;;5064481;28;19947;-85
2022/02/10 21:00:34;;;;;;;;;;;5.40;99.90;;;;;;5062447;28;19929;-85
2022/02/10 21:03:07;;;;;;;;;;;5.30;99.90;;;;;;5051970;28;19931;-85
2022/02/10 21:05:46;;;;;;;;;;;6.50;99.90;;;;;;5057076;28;20134;-86
2022/02/10 21:11:16;;;;;;;;;;;5.30;99.90;;;;;;5061541;28;19924;-84
2022/02/10 21:13:59;;;;;;;;;;;5.70;99.90;;;;;;5068464;28;21087;-84
2022/02/10 21:16:42;;;;;;;;;;;5.50;99.90;;;;;;5086672;28;19931;-85
2022/02/10 21:19:23;;;;;;;;;;;5.20;99.90;;;;;;5077003;28;19941;-88
2022/02/10 21:22:17;;;;;;;;;;;5.20;99.90;;;;;;5054256;28;19931;-86
2022/02/10 21:24:55;;;;;;;;;;;5.30;99.90;;;;;;5053216;28;20026;-88
2022/02/10 21:27:30;;;;;;;;;;;5.10;99.90;;;;;;5054995;28;19929;-88
2022/02/10 21:30:06;;;;;;;;;;;4.50;99.90;;;;;;5070849;28;19933;-87
2022/02/10 21:32:45;;;;;;;;;;;5.10;99.90;;;;;;5078126;28;19932;-88
2022/02/10 21:38:10;;;;;;;;;;;4.50;99.90;;;;;;5064874;28;19925;-86
2022/02/10 22:01:50;;;;;;;;;;;4.90;99.90;;;;;;5057149;28;19938;-87
2022/02/10 22:19:46;;;;;;;;;;;4.70;99.90;;;;;;5084153;28;19924;-89
2022/02/10 22:22:22;;;;;;;;;;;6.30;99.90;;;;;;5082453;28;19925;-89
2022/02/10 22:24:51;;;;;;;;;;;4.60;99.90;;;;;;5069063;28;19932;-87
2022/02/10 22:27:27;;;;;;;;;;;4.60;99.90;;;;;;5074434;28;19932;-87
2022/02/10 22:30:04;;;;;;;;;;;4.60;99.90;;;;;;5078462;28;19920;-87
2022/02/10 22:32:50;;;;;;;;;;;4.50;99.90;;;;;;5084115;28;19925;-86
2022/02/10 22:35:19;;;;;;;;;;;4.50;99.90;;;;;;5089272;28;19924;-88
2022/02/10 22:37:57;;;;;;;;;;;4.50;99.90;;;;;;5110238;28;19924;-86
2022/02/10 22:43:12;;;;;;;;;;;4.40;99.90;;;;;;5106467;28;20290;-87
2022/02/10 22:45:40;;;;;;;;;;;4.40;99.90;;;;;;5086076;28;19935;-86
2022/02/10 22:48:09;;;;;;;;;;;4.30;99.90;;;;;;5086216;28;19947;-87
2022/02/10 22:50:36;;;;;;;;;;;4.30;99.90;;;;;;5082779;28;19935;-87
2022/02/10 22:53:04;;;;;;;;;;;4.30;99.90;;;;;;5091374;28;19924;-87
2022/02/10 22:55:32;;;;;;;;;;;4.30;99.90;;;;;;5064836;28;20170;-86
2022/02/10 22:58:01;;;;;;;;;;;4.10;99.90;;;;;;5085080;28;19928;-86
2022/02/10 23:00:46;;;;;;;;;;;4.30;99.90;;;;;;5082459;28;19928;-87
2022/02/10 23:03:15;;;;;;;;;;;4.70;99.90;;;;;;5068519;28;19925;-86
2022/02/10 23:05:43;;;;;;;;;;;3.10;99.90;;;;;;5067341;28;19931;-89
2022/02/10 23:08:12;;;;;;;;;;;4.00;99.90;;;;;;5064272;28;19924;-89
2022/02/10 23:10:49;;;;;;;;;;;4.30;99.90;;;;;;5083611;28;19928;-88
2022/02/10 23:13:26;;;;;;;;;;;4.20;99.90;;;;;;5088570;28;19924;-88
2022/02/10 23:15:55;;;;;;;;;;;4.20;99.90;;;;;;5086436;28;19924;-87
2022/02/10 23:18:26;;;;;;;;;;;4.20;99.90;;;;;;5090520;28;19929;-87
2022/02/10 23:20:56;;;;;;;;;;;4.10;99.90;;;;;;5068596;28;19928;-86
2022/02/10 23:23:30;;;;;;;;;;;3.20;99.90;;;;;;5076543;28;19924;-88
2022/02/10 23:25:59;;;;;;;;;;;4.10;99.90;;;;;;5073792;28;19924;-88
2022/02/10 23:28:30;;;;;;;;;;;4.10;99.90;;;;;;5058890;28;19936;-89
2022/02/10 23:30:58;;;;;;;;;;;4.10;99.90;;;;;;5076940;28;19931;-87
2022/02/10 23:33:33;;;;;;;;;;;4.00;99.90;;;;;;5087790;28;19930;-89
2022/02/10 23:38:56;;;;;;;;;;;4.00;99.90;;;;;;5071223;28;19935;-87
2022/02/10 23:44:11;;;;;;;;;;;3.90;99.90;;;;;;5069603;28;19931;-88
2022/02/10 23:46:41;;;;;;;;;;;3.90;99.90;;;;;;5103324;28;19928;-87
2022/02/10 23:49:18;;;;;;;;;;;3.80;99.90;;;;;;5081358;28;19958;-90
2022/02/10 23:51:57;;;;;;;;;;;3.80;99.90;;;;;;5087483;28;19928;-87
2022/02/10 23:54:31;;;;;;;;;;;3.80;99.90;;;;;;5089650;28;19928;-87
2022/02/10 23:57:05;;;;;;;;;;;3.80;99.90;;;;;;5088306;28;20406;-88
2022/02/10 23:59:57;;;;;;;;;;;3.70;99.90;;;;;;5054607;28;19925;-87
